createdAt,value
2019-05-25T00:01:50.418Z,13.00
2019-05-25T00:04:21.240Z,13.00
2019-05-25T00:06:51.759Z,13.00
2019-05-25T00:09:22.324Z,13.00
2019-05-25T00:11:53.015Z,13.00
2019-05-25T00:14:23.496Z,13.00
2019-05-25T00:16:54.077Z,12.90
2019-05-25T00:19:24.562Z,13.00
2019-05-25T00:21:55.056Z,12.90
2019-05-25T00:24:25.493Z,12.90
2019-05-25T00:26:55.937Z,12.90
2019-05-25T00:29:27.622Z,12.90
2019-05-25T00:31:58.156Z,12.80
2019-05-25T00:34:28.697Z,12.90
2019-05-25T00:36:59.218Z,12.80
2019-05-25T00:39:29.837Z,12.80
2019-05-25T00:42:00.373Z,12.80
2019-05-25T00:44:30.922Z,12.80
2019-05-25T00:47:01.502Z,12.70
2019-05-25T00:49:31.999Z,12.60
2019-05-25T00:52:02.595Z,12.60
2019-05-25T00:54:33.515Z,12.60
2019-05-25T00:57:04.027Z,12.70
2019-05-25T00:59:34.548Z,12.70
2019-05-25T01:02:04.999Z,12.70
2019-05-25T01:04:35.571Z,12.70
2019-05-25T01:07:06.175Z,12.70
2019-05-25T01:09:36.948Z,12.70
2019-05-25T01:12:07.511Z,12.70
2019-05-25T01:14:38.078Z,12.70
2019-05-25T01:17:08.729Z,12.60
2019-05-25T01:19:39.580Z,12.60
2019-05-25T01:22:10.094Z,12.60
2019-05-25T01:24:44.711Z,12.70
2019-05-25T01:27:14.759Z,12.60
2019-05-25T01:29:45.273Z,12.60
2019-05-25T01:32:15.793Z,12.50
2019-05-25T01:34:46.349Z,12.60
2019-05-25T01:37:16.819Z,12.60
2019-05-25T01:39:47.298Z,12.60
2019-05-25T01:42:17.825Z,12.50
2019-05-25T01:44:48.364Z,12.40
2019-05-25T01:47:18.901Z,12.40
2019-05-25T01:49:49.423Z,12.40
2019-05-25T01:52:20.115Z,12.40
2019-05-25T01:54:59.472Z,12.50
2019-05-25T01:57:22.814Z,12.50
2019-05-25T01:59:53.427Z,12.50
2019-05-25T02:02:24.276Z,12.40
2019-05-25T02:04:55.013Z,12.40
2019-05-25T02:07:25.537Z,12.40
2019-05-25T02:09:56.157Z,12.40
2019-05-25T02:12:26.734Z,12.40
2019-05-25T02:14:57.295Z,12.30
2019-05-25T02:17:27.805Z,12.30
2019-05-25T02:19:58.315Z,12.30
2019-05-25T02:22:28.865Z,12.30
2019-05-25T02:25:16.023Z,12.40
2019-05-25T02:27:31.585Z,12.40
2019-05-25T02:30:02.346Z,12.40
2019-05-25T02:32:32.976Z,12.40
2019-05-25T02:35:03.526Z,12.50
2019-05-25T02:37:34.050Z,12.50
2019-05-25T02:40:05.252Z,12.50
2019-05-25T02:42:35.774Z,12.50
2019-05-25T02:45:06.759Z,12.50
2019-05-25T02:47:37.356Z,12.50
2019-05-25T02:50:08.125Z,12.50
2019-05-25T02:52:38.623Z,12.50
2019-05-25T02:55:12.042Z,12.40
2019-05-25T02:57:42.532Z,12.40
2019-05-25T03:00:13.762Z,12.40
2019-05-25T03:02:44.384Z,12.50
2019-05-25T03:05:15.775Z,12.50
2019-05-25T03:07:48.137Z,12.50
2019-05-25T03:10:18.825Z,12.50
2019-05-25T03:12:49.501Z,12.60
2019-05-25T03:15:19.977Z,12.50
2019-05-25T03:17:50.498Z,12.50
2019-05-25T03:20:21.154Z,12.60
2019-05-25T03:22:51.625Z,12.60
2019-05-25T03:25:22.093Z,12.60
2019-05-25T03:27:53.779Z,12.50
2019-05-25T03:30:34.652Z,12.50
2019-05-25T03:33:05.467Z,12.40
2019-05-25T03:35:36.017Z,12.40
2019-05-25T03:38:06.592Z,12.40
2019-05-25T03:40:37.034Z,12.40
2019-05-25T03:43:09.497Z,12.40
2019-05-25T03:45:40.020Z,12.40
2019-05-25T03:48:10.591Z,12.50
2019-05-25T03:50:41.111Z,12.50
2019-05-25T03:53:11.681Z,12.40
2019-05-25T03:55:42.190Z,12.50
2019-05-25T03:58:12.689Z,12.50
2019-05-25T04:00:43.276Z,12.50
2019-05-25T04:03:13.779Z,12.50
2019-05-25T04:05:44.176Z,12.60
2019-05-25T04:08:14.761Z,12.60
2019-05-25T04:10:46.209Z,12.50
2019-05-25T04:13:16.731Z,12.60
2019-05-25T04:15:47.278Z,12.60
2019-05-25T04:18:17.791Z,12.70
2019-05-25T04:20:48.377Z,12.70
2019-05-25T04:23:18.902Z,12.80
2019-05-25T04:25:49.379Z,12.80
2019-05-25T04:28:19.953Z,12.80
2019-05-25T04:30:50.517Z,12.90
2019-05-25T04:33:21.066Z,12.90
2019-05-25T04:35:51.635Z,12.80
2019-05-25T04:38:22.163Z,12.80
2019-05-25T04:40:52.781Z,12.80
2019-05-25T04:43:23.353Z,12.90
2019-05-25T04:45:55.673Z,12.90
2019-05-25T04:48:26.141Z,12.90
2019-05-25T04:50:56.686Z,12.90
2019-05-25T04:53:27.129Z,12.90
2019-05-25T04:55:57.701Z,12.80
2019-05-25T04:58:28.307Z,12.80
2019-05-25T05:00:58.963Z,12.90
2019-05-25T05:03:29.480Z,12.90
2019-05-25T05:06:00.041Z,13.00
2019-05-25T05:08:30.520Z,13.10
2019-05-25T05:11:01.020Z,13.10
2019-05-25T05:13:32.709Z,13.10
2019-05-25T05:16:03.503Z,13.20
2019-05-25T05:18:33.962Z,13.20
2019-05-25T05:21:04.574Z,13.30
2019-05-25T05:23:35.075Z,13.30
2019-05-25T05:26:05.874Z,13.30
2019-05-25T05:28:36.431Z,13.30
2019-05-25T05:31:22.477Z,13.40
2019-05-25T05:33:39.240Z,13.30
2019-05-25T05:36:10.840Z,13.20
2019-05-25T05:38:42.350Z,13.10
2019-05-25T05:41:13.413Z,13.10
2019-05-25T05:43:45.460Z,13.20
2019-05-25T05:46:18.331Z,13.20
2019-05-25T05:48:51.426Z,13.30
2019-05-25T05:51:22.130Z,13.30
2019-05-25T05:53:56.249Z,13.40
2019-05-25T05:56:26.678Z,13.40
2019-05-25T05:58:57.237Z,13.50
2019-05-25T06:01:27.745Z,13.50
2019-05-25T06:03:58.370Z,13.50
2019-05-25T06:06:28.928Z,13.50
2019-05-25T06:08:59.450Z,13.50
2019-05-25T06:11:30.078Z,13.50
2019-05-25T06:14:00.951Z,13.40
2019-05-25T06:16:31.422Z,13.50
2019-05-25T06:19:01.918Z,13.50
2019-05-25T06:21:32.531Z,13.50
2019-05-25T06:24:03.384Z,13.40
2019-05-25T06:26:33.961Z,13.40
2019-05-25T06:29:04.663Z,13.40
2019-05-25T06:31:35.229Z,13.50
2019-05-25T06:34:05.880Z,13.40
2019-05-25T06:36:37.266Z,13.50
2019-05-25T06:39:08.628Z,13.40
2019-05-25T06:41:39.141Z,13.40
2019-05-25T06:44:09.787Z,13.40
2019-05-25T06:46:40.390Z,13.40
2019-05-25T06:49:10.933Z,13.50
2019-05-25T06:51:41.543Z,13.50
2019-05-25T06:54:12.138Z,13.40
2019-05-25T06:56:42.785Z,13.40
2019-05-25T06:59:13.654Z,13.40
2019-05-25T07:01:44.216Z,13.40
2019-05-25T07:04:15.484Z,13.50
2019-05-25T07:06:46.313Z,13.40
2019-05-25T07:09:16.969Z,13.50
2019-05-25T07:11:47.606Z,13.50
2019-05-25T07:14:18.306Z,13.50
2019-05-25T07:16:48.879Z,13.60
2019-05-25T07:19:21.054Z,13.60
2019-05-25T07:21:51.702Z,13.70
2019-05-25T07:24:22.292Z,13.70
2019-05-25T07:26:53.217Z,13.80
2019-05-25T07:29:23.855Z,13.80
2019-05-25T07:31:54.536Z,13.90
2019-05-25T07:34:25.776Z,13.90
2019-05-25T07:36:56.302Z,13.90
2019-05-25T07:39:26.908Z,14.00
2019-05-25T07:41:57.514Z,14.00
2019-05-25T07:44:28.064Z,14.00
2019-05-25T07:46:58.547Z,14.10
2019-05-25T07:49:29.151Z,14.10
2019-05-25T07:52:02.667Z,14.10
2019-05-25T07:54:31.938Z,14.10
2019-05-25T07:57:02.503Z,14.20
2019-05-25T07:59:33.069Z,14.20
2019-05-25T08:02:03.672Z,14.20
2019-05-25T08:04:34.275Z,14.20
2019-05-25T08:07:04.894Z,14.20
2019-05-25T08:09:35.375Z,14.20
2019-05-25T08:12:05.947Z,14.20
2019-05-25T08:14:36.503Z,14.20
2019-05-25T08:17:07.010Z,14.30
2019-05-25T08:19:37.575Z,14.30
2019-05-25T08:22:08.256Z,14.30
2019-05-25T08:24:38.869Z,14.30
2019-05-25T08:27:09.380Z,14.30
2019-05-25T08:29:39.930Z,14.40
2019-05-25T08:32:10.579Z,14.40
2019-05-25T08:34:41.179Z,14.40
2019-05-25T08:37:11.719Z,14.40
2019-05-25T08:39:42.305Z,14.50
2019-05-25T08:42:12.951Z,14.50
2019-05-25T08:44:43.467Z,14.50
2019-05-25T08:47:15.298Z,14.50
2019-05-25T08:49:45.788Z,14.50
2019-05-25T08:52:16.505Z,14.50
2019-05-25T08:54:47.130Z,14.50
2019-05-25T08:57:18.682Z,14.50
2019-05-25T08:59:49.291Z,14.50
2019-05-25T09:02:19.863Z,14.50
2019-05-25T09:04:50.387Z,14.50
2019-05-25T09:07:20.911Z,14.50
2019-05-25T09:09:51.603Z,14.50
2019-05-25T09:12:22.113Z,14.60
2019-05-25T09:14:52.766Z,14.60
2019-05-25T09:17:23.384Z,14.60
2019-05-25T09:19:53.860Z,14.60
2019-05-25T09:22:24.429Z,14.50
2019-05-25T09:24:55.029Z,14.50
2019-05-25T09:27:25.555Z,14.50
2019-05-25T09:29:56.047Z,14.50
2019-05-25T09:32:26.842Z,14.50
2019-05-25T09:34:57.356Z,14.50
2019-05-25T09:37:28.068Z,14.50
2019-05-25T09:39:58.627Z,14.50
2019-05-25T09:42:29.103Z,14.50
2019-05-25T09:44:59.648Z,14.50
2019-05-25T09:47:30.594Z,14.50
2019-05-25T09:50:01.152Z,14.50
2019-05-25T09:52:32.016Z,14.50
2019-05-25T09:55:02.578Z,14.50
2019-05-25T09:57:33.085Z,14.50
2019-05-25T10:00:03.780Z,14.50
2019-05-25T10:02:34.304Z,14.40
2019-05-25T10:05:05.047Z,14.40
2019-05-25T10:07:35.577Z,14.40
2019-05-25T10:10:06.752Z,14.40
2019-05-25T10:12:37.293Z,14.40
2019-05-25T10:15:08.308Z,14.40
2019-05-25T10:17:38.886Z,14.40
2019-05-25T10:20:09.986Z,14.40
2019-05-25T10:22:40.501Z,14.40
2019-05-25T10:25:11.124Z,14.40
2019-05-25T10:27:41.713Z,14.40
2019-05-25T10:30:12.602Z,14.40
2019-05-25T10:32:44.113Z,14.40
2019-05-25T10:35:14.921Z,14.40
2019-05-25T10:37:45.517Z,14.40
2019-05-25T10:40:16.366Z,14.40
2019-05-25T10:42:47.008Z,14.40
2019-05-25T10:45:19.822Z,14.40
2019-05-25T10:47:50.436Z,14.40
2019-05-25T10:50:21.125Z,14.40
2019-05-25T10:52:51.645Z,14.50
2019-05-25T10:55:22.282Z,14.50
2019-05-25T10:57:52.803Z,14.40
2019-05-25T11:00:23.605Z,14.50
2019-05-25T11:02:54.150Z,14.50
2019-05-25T11:05:24.873Z,14.50
2019-05-25T11:07:55.422Z,14.50
2019-05-25T11:10:26.230Z,14.50
2019-05-25T11:12:56.973Z,14.50
2019-05-25T11:15:27.494Z,14.50
2019-05-25T11:18:00.028Z,14.50
2019-05-25T11:20:30.540Z,14.50
2019-05-25T11:23:01.193Z,14.50
2019-05-25T11:25:31.729Z,14.50
2019-05-25T11:28:02.199Z,14.50
2019-05-25T11:30:32.767Z,14.60
2019-05-25T11:33:03.669Z,14.60
2019-05-25T11:35:34.256Z,14.60
2019-05-25T11:38:04.845Z,14.60
2019-05-25T11:40:35.386Z,14.70
2019-05-25T11:43:05.940Z,14.60
2019-05-25T11:45:36.677Z,14.60
2019-05-25T11:48:07.302Z,14.60
2019-05-25T11:50:37.807Z,14.70
2019-05-25T11:53:08.338Z,14.70
2019-05-25T11:55:38.870Z,14.70
2019-05-25T11:58:09.417Z,14.70
2019-05-25T12:00:40.261Z,14.80
2019-05-25T12:03:10.758Z,14.80
2019-05-25T12:05:41.233Z,14.80
2019-05-25T12:08:11.938Z,14.80
2019-05-25T12:10:42.602Z,14.80
2019-05-25T12:13:14.520Z,14.80
2019-05-25T12:15:45.399Z,14.80
2019-05-25T12:18:15.955Z,14.80
2019-05-25T12:20:46.727Z,14.80
2019-05-25T12:23:18.350Z,14.80
2019-05-25T12:25:48.905Z,14.80
2019-05-25T12:28:19.704Z,14.80
2019-05-25T12:30:50.247Z,14.80
2019-05-25T12:33:20.727Z,14.80
2019-05-25T12:35:51.420Z,14.80
2019-05-25T12:38:21.885Z,14.80
2019-05-25T12:40:54.111Z,14.90
2019-05-25T12:43:24.783Z,14.90
2019-05-25T12:45:55.362Z,14.90
2019-05-25T12:48:25.770Z,14.90
2019-05-25T12:50:56.323Z,14.90
2019-05-25T12:53:26.817Z,15.00
2019-05-25T12:55:57.291Z,15.00
2019-05-25T12:58:27.867Z,15.00
2019-05-25T13:00:58.301Z,15.00
2019-05-25T13:03:28.771Z,15.00
2019-05-25T13:05:59.324Z,15.00
2019-05-25T13:08:29.799Z,15.00
2019-05-25T13:11:00.319Z,14.90
2019-05-25T13:13:30.825Z,14.90
2019-05-25T13:16:01.605Z,14.90
2019-05-25T13:18:32.124Z,14.90
2019-05-25T13:21:02.674Z,14.90
2019-05-25T13:23:33.227Z,14.80
2019-05-25T13:26:03.770Z,14.80
2019-05-25T13:28:34.253Z,14.80
2019-05-25T13:31:11.853Z,14.80
2019-05-25T13:33:37.121Z,14.60
2019-05-25T13:36:07.647Z,14.50
2019-05-25T13:38:38.249Z,14.40
2019-05-25T13:41:08.721Z,14.30
2019-05-25T13:43:39.212Z,14.20
2019-05-25T13:46:09.733Z,14.10
2019-05-25T13:48:40.385Z,14.10
2019-05-25T13:51:10.941Z,14.10
2019-05-25T13:53:41.455Z,14.10
2019-05-25T13:56:11.971Z,14.10
2019-05-25T13:58:42.503Z,14.10
2019-05-25T14:01:27.452Z,14.10
2019-05-25T14:03:45.138Z,14.20
2019-05-25T14:06:15.714Z,14.20
2019-05-25T14:08:46.227Z,14.30
2019-05-25T14:11:16.793Z,14.30
2019-05-25T14:13:47.271Z,14.40
2019-05-25T14:16:17.819Z,14.50
2019-05-25T14:18:48.338Z,14.50
2019-05-25T14:21:18.817Z,14.60
2019-05-25T14:23:49.490Z,14.60
2019-05-25T14:26:19.935Z,14.60
2019-05-25T14:28:50.493Z,14.70
2019-05-25T14:31:21.007Z,14.70
2019-05-25T14:33:51.530Z,14.70
2019-05-25T14:36:22.035Z,14.70
2019-05-25T14:38:52.667Z,14.80
2019-05-25T14:41:23.190Z,14.80
2019-05-25T14:43:53.708Z,14.80
2019-05-25T14:46:27.687Z,14.80
2019-05-25T14:48:56.459Z,14.80
2019-05-25T14:51:27.283Z,14.80
2019-05-25T14:53:57.925Z,14.80
2019-05-25T14:56:28.443Z,14.80
2019-05-25T14:58:58.941Z,14.80
2019-05-25T15:01:29.574Z,14.80
2019-05-25T15:04:00.071Z,14.80
2019-05-25T15:06:30.539Z,14.80
2019-05-25T15:09:01.046Z,14.80
2019-05-25T15:11:31.539Z,14.70
2019-05-25T15:14:01.988Z,14.70
2019-05-25T15:16:32.517Z,14.70
2019-05-25T15:19:03.068Z,14.70
2019-05-25T15:21:36.748Z,14.80
2019-05-25T15:24:07.375Z,14.80
2019-05-25T15:26:38.200Z,14.80
2019-05-25T15:29:11.268Z,14.80
2019-05-25T15:31:40.992Z,14.80
2019-05-25T15:34:11.537Z,14.70
2019-05-25T15:36:42.065Z,14.70
2019-05-25T15:39:12.665Z,14.80
2019-05-25T15:41:43.131Z,14.80
2019-05-25T15:44:13.614Z,14.70
2019-05-25T15:46:44.192Z,14.80
2019-05-25T15:49:14.662Z,14.80
2019-05-25T15:51:45.547Z,14.90
2019-05-25T15:54:15.985Z,14.90
2019-05-25T15:56:46.482Z,15.00
2019-05-25T15:59:17.074Z,15.10
2019-05-25T16:01:49.226Z,15.10
2019-05-25T16:04:19.769Z,15.10
2019-05-25T16:06:50.395Z,15.20
2019-05-25T16:09:21.214Z,15.10
2019-05-25T16:11:51.715Z,15.10
2019-05-25T16:14:22.162Z,15.10
2019-05-25T16:16:52.730Z,15.10
2019-05-25T16:19:23.479Z,15.10
2019-05-25T16:21:53.976Z,15.20
2019-05-25T16:24:24.502Z,15.30
2019-05-25T16:26:55.049Z,15.20
2019-05-25T16:29:25.559Z,15.20
2019-05-25T16:31:56.048Z,15.20
2019-05-25T16:34:26.569Z,15.20
2019-05-25T16:36:57.164Z,15.20
2019-05-25T16:39:27.656Z,15.20
2019-05-25T16:41:58.500Z,15.10
2019-05-25T16:44:28.977Z,15.10
2019-05-25T16:46:59.380Z,15.00
2019-05-25T16:49:29.892Z,15.00
2019-05-25T16:52:00.534Z,15.00
2019-05-25T16:54:31.043Z,15.00
2019-05-25T16:57:01.566Z,15.00
2019-05-25T16:59:31.995Z,14.90
2019-05-25T17:02:02.809Z,14.90
2019-05-25T17:04:33.275Z,14.90
2019-05-25T17:07:03.855Z,14.90
2019-05-25T17:09:34.454Z,14.80
2019-05-25T17:12:05.077Z,14.80
2019-05-25T17:14:36.001Z,14.80
2019-05-25T17:17:06.973Z,14.80
2019-05-25T17:19:37.488Z,14.80
2019-05-25T17:22:08.028Z,14.80
2019-05-25T17:24:38.562Z,14.70
2019-05-25T17:27:09.057Z,14.70
2019-05-25T17:29:39.632Z,14.70
2019-05-25T17:32:10.123Z,14.70
2019-05-25T17:34:40.623Z,14.70
2019-05-25T17:37:11.169Z,14.70
2019-05-25T17:39:42.070Z,14.70
2019-05-25T17:42:12.534Z,14.70
2019-05-25T17:44:43.039Z,14.70
2019-05-25T17:47:13.651Z,14.60
2019-05-25T17:49:44.123Z,14.70
2019-05-25T17:52:14.725Z,14.70
2019-05-25T17:54:46.084Z,14.70
2019-05-25T17:57:16.585Z,14.70
2019-05-25T17:59:47.373Z,14.70
2019-05-25T18:02:17.915Z,14.70
2019-05-25T18:04:48.441Z,14.70
2019-05-25T18:07:18.816Z,14.70
2019-05-25T18:09:49.369Z,14.70
2019-05-25T18:12:20.089Z,14.70
2019-05-25T18:14:52.571Z,14.70
2019-05-25T18:17:23.070Z,14.70
2019-05-25T18:19:53.503Z,14.70
2019-05-25T18:22:25.061Z,14.60
2019-05-25T18:24:55.684Z,14.60
2019-05-25T18:27:26.239Z,14.60
2019-05-25T18:29:58.106Z,14.60
2019-05-25T18:32:28.911Z,14.60
2019-05-25T18:34:59.799Z,14.60
2019-05-25T18:37:30.329Z,14.60
2019-05-25T18:40:00.892Z,14.60
2019-05-25T18:42:31.707Z,14.60
2019-05-25T18:45:02.429Z,14.60
2019-05-25T18:47:33.681Z,14.60
2019-05-25T18:50:05.101Z,14.60
2019-05-25T18:52:35.574Z,14.60
2019-05-25T18:55:07.239Z,14.60
2019-05-25T18:57:37.855Z,14.60
2019-05-25T19:00:09.983Z,14.60
2019-05-25T19:02:41.452Z,14.60
2019-05-25T19:05:14.404Z,14.60
2019-05-25T19:07:45.285Z,14.60
2019-05-25T19:10:15.896Z,14.50
2019-05-25T19:12:46.380Z,14.50
2019-05-25T19:15:17.086Z,14.50
2019-05-25T19:17:47.622Z,14.50
2019-05-25T19:20:21.081Z,14.50
2019-05-25T19:22:50.651Z,14.50
2019-05-25T19:25:21.196Z,14.50
2019-05-25T19:27:51.701Z,14.50
2019-05-25T19:30:22.446Z,14.50
2019-05-25T19:32:52.898Z,14.40
2019-05-25T19:35:23.324Z,14.40
2019-05-25T19:37:54.041Z,14.40
2019-05-25T19:40:24.677Z,14.30
2019-05-25T19:42:56.323Z,14.30
2019-05-25T19:45:27.225Z,14.30
2019-05-25T19:47:57.721Z,14.30
2019-05-25T19:50:28.491Z,14.20
2019-05-25T19:52:58.967Z,14.20
2019-05-25T19:55:29.808Z,14.20
2019-05-25T19:58:00.329Z,14.10
2019-05-25T20:00:30.845Z,14.10
2019-05-25T20:03:01.420Z,14.10
2019-05-25T20:05:32.041Z,14.10
2019-05-25T20:08:02.591Z,14.00
2019-05-25T20:10:33.189Z,14.00
2019-05-25T20:13:03.688Z,14.00
2019-05-25T20:15:34.174Z,14.00
2019-05-25T20:18:04.686Z,13.90
2019-05-25T20:20:35.195Z,13.90
2019-05-25T20:23:06.124Z,13.90
2019-05-25T20:25:36.505Z,13.90
2019-05-25T20:28:07.071Z,13.90
2019-05-25T20:30:37.602Z,13.90
2019-05-25T20:33:08.491Z,13.90
2019-05-25T20:35:39.022Z,13.80
2019-05-25T20:38:09.510Z,13.80
2019-05-25T20:40:40.030Z,13.80
2019-05-25T20:43:10.553Z,13.80
2019-05-25T20:45:41.103Z,13.80
2019-05-25T20:48:11.666Z,13.80
2019-05-25T20:50:42.549Z,13.80
2019-05-25T20:53:13.550Z,13.80
2019-05-25T20:55:44.436Z,13.80
2019-05-25T20:58:14.997Z,13.80
2019-05-25T21:00:45.509Z,13.70
2019-05-25T21:03:15.961Z,13.70
2019-05-25T21:05:50.663Z,13.70
2019-05-25T21:08:18.708Z,13.70
2019-05-25T21:10:49.247Z,13.60
2019-05-25T21:13:19.763Z,13.60
2019-05-25T21:15:50.285Z,13.60
2019-05-25T21:18:21.106Z,13.60
2019-05-25T21:20:51.643Z,13.60
2019-05-25T21:23:22.180Z,13.60
2019-05-25T21:25:52.711Z,13.50
2019-05-25T21:28:23.250Z,13.50
2019-05-25T21:30:53.771Z,13.50
2019-05-25T21:33:24.273Z,13.40
2019-05-25T21:36:07.686Z,13.40
2019-05-25T21:38:27.133Z,13.40
2019-05-25T21:40:57.964Z,13.40
2019-05-25T21:43:28.575Z,13.40
2019-05-25T21:45:59.416Z,13.30
2019-05-25T21:48:29.866Z,13.30
2019-05-25T21:51:00.435Z,13.30
2019-05-25T21:53:30.973Z,13.30
2019-05-25T21:56:01.419Z,13.30
2019-05-25T21:58:32.468Z,13.30
2019-05-25T22:01:03.063Z,13.30
2019-05-25T22:03:33.610Z,13.30
2019-05-25T22:06:04.114Z,13.30
2019-05-25T22:08:34.626Z,13.20
2019-05-25T22:11:05.158Z,13.20
2019-05-25T22:13:35.667Z,13.20
2019-05-25T22:16:06.231Z,13.20
2019-05-25T22:18:36.781Z,13.20
2019-05-25T22:21:07.362Z,13.20
2019-05-25T22:23:37.915Z,13.20
2019-05-25T22:26:08.401Z,13.30
2019-05-25T22:28:44.980Z,13.30
2019-05-25T22:31:11.030Z,13.30
2019-05-25T22:33:41.531Z,13.30
2019-05-25T22:36:12.042Z,13.30
2019-05-25T22:38:42.572Z,13.30
2019-05-25T22:41:13.091Z,13.30
2019-05-25T22:43:43.611Z,13.30
2019-05-25T22:46:14.134Z,13.30
2019-05-25T22:48:44.667Z,13.30
2019-05-25T22:51:15.189Z,13.20
2019-05-25T22:53:45.663Z,13.30
2019-05-25T22:56:16.212Z,13.20
2019-05-25T22:58:46.747Z,13.20
2019-05-25T23:01:17.406Z,13.20
2019-05-25T23:03:47.942Z,13.20
2019-05-25T23:06:18.457Z,13.20
2019-05-25T23:08:49.032Z,13.10
2019-05-25T23:11:19.544Z,13.10
2019-05-25T23:13:50.117Z,13.10
2019-05-25T23:16:20.557Z,13.10
2019-05-25T23:18:51.357Z,13.10
2019-05-25T23:21:21.995Z,13.10
2019-05-25T23:23:52.554Z,13.10
2019-05-25T23:26:23.050Z,13.10
2019-05-25T23:28:53.504Z,13.10
2019-05-25T23:31:24.055Z,13.10
2019-05-25T23:33:54.612Z,13.10
2019-05-25T23:36:25.212Z,13.10
2019-05-25T23:38:55.745Z,13.00
2019-05-25T23:41:26.210Z,13.00
2019-05-25T23:43:59.825Z,12.90
2019-05-25T23:46:28.941Z,12.80
2019-05-25T23:48:59.706Z,12.80
2019-05-25T23:51:30.228Z,12.80
2019-05-25T23:54:00.738Z,12.80
2019-05-25T23:56:31.236Z,12.80
2019-05-25T23:59:01.719Z,12.80
